createdAt,value
2023-01-07T00:01:40.324Z,6.10
2023-01-07T00:04:10.564Z,6.20
2023-01-07T00:06:40.797Z,6.20
2023-01-07T00:09:12.423Z,6.20
2023-01-07T00:11:41.188Z,6.20
2023-01-07T00:14:10.648Z,6.30
2023-01-07T00:16:39.060Z,6.30
2023-01-07T00:19:08.574Z,6.40
2023-01-07T00:21:36.041Z,6.50
2023-01-07T00:24:05.652Z,6.40
2023-01-07T00:26:35.584Z,6.50
2023-01-07T00:29:03.559Z,6.50
2023-01-07T00:31:34.241Z,6.50
2023-01-07T00:34:02.388Z,6.50
2023-01-07T00:36:35.831Z,6.50
2023-01-07T00:39:06.345Z,6.40
2023-01-07T00:41:34.091Z,6.40
2023-01-07T00:44:01.627Z,6.50
2023-01-07T00:46:29.813Z,6.50
2023-01-07T00:48:57.385Z,6.40
2023-01-07T00:51:25.032Z,6.50
2023-01-07T00:53:52.430Z,6.50
2023-01-07T00:56:20.044Z,6.50
2023-01-07T00:58:47.398Z,6.50
2023-01-07T01:01:16.209Z,6.50
2023-01-07T01:03:43.530Z,6.60
2023-01-07T01:06:15.048Z,6.60
2023-01-07T01:08:44.218Z,6.60
2023-01-07T01:11:14.088Z,6.60
2023-01-07T01:13:42.646Z,6.50
2023-01-07T01:16:16.496Z,6.60
2023-01-07T01:18:44.713Z,6.60
2023-01-07T01:21:14.843Z,6.60
2023-01-07T01:23:43.159Z,6.60
2023-01-07T01:26:15.798Z,6.40
2023-01-07T01:28:43.627Z,6.30
2023-01-07T01:31:12.798Z,6.20
2023-01-07T01:33:56.219Z,6.10
2023-01-07T01:36:25.014Z,6.00
2023-01-07T01:38:54.896Z,5.80
2023-01-07T01:41:22.411Z,5.70
2023-01-07T01:43:52.902Z,5.50
2023-01-07T01:46:39.891Z,5.40
2023-01-07T01:49:25.963Z,5.20
2023-01-07T01:52:03.077Z,5.10
2023-01-07T01:54:31.241Z,5.00
2023-01-07T01:57:01.591Z,4.90
2023-01-07T01:59:31.970Z,4.90
2023-01-07T02:02:03.708Z,4.90
2023-01-07T02:04:31.671Z,4.90
2023-01-07T02:07:07.286Z,4.90
2023-01-07T02:09:37.275Z,4.90
2023-01-07T02:12:09.035Z,5.00
2023-01-07T02:14:39.208Z,5.00
2023-01-07T02:17:31.943Z,5.00
2023-01-07T02:20:07.877Z,4.90
2023-01-07T02:23:04.112Z,4.90
2023-01-07T02:25:37.407Z,4.90
2023-01-07T02:28:29.545Z,5.00
2023-01-07T02:31:22.717Z,4.90
2023-01-07T02:33:54.914Z,5.00
2023-01-07T02:36:36.409Z,5.00
2023-01-07T02:39:17.968Z,4.90
2023-01-07T02:41:51.195Z,4.80
2023-01-07T02:44:45.380Z,4.80
2023-01-07T02:47:20.191Z,4.70
2023-01-07T02:49:49.182Z,4.70
2023-01-07T02:52:31.995Z,4.70
2023-01-07T02:55:05.155Z,4.70
2023-01-07T02:58:09.822Z,4.80
2023-01-07T03:01:11.137Z,4.80
2023-01-07T03:04:14.251Z,4.90
2023-01-07T03:07:02.036Z,4.90
2023-01-07T03:10:03.388Z,4.90
2023-01-07T03:12:46.071Z,5.00
2023-01-07T03:15:28.853Z,5.00
2023-01-07T03:18:15.464Z,5.00
2023-01-07T03:20:44.607Z,5.10
2023-01-07T03:23:15.362Z,5.10
2023-01-07T03:25:46.507Z,5.10
2023-01-07T03:28:17.909Z,5.10
2023-01-07T03:30:48.005Z,5.00
2023-01-07T03:33:26.529Z,5.00
2023-01-07T03:35:56.300Z,4.90
2023-01-07T03:38:26.282Z,4.90
2023-01-07T03:40:54.655Z,4.90
2023-01-07T03:43:23.484Z,5.00
2023-01-07T03:45:52.382Z,5.00
2023-01-07T03:48:20.042Z,5.00
2023-01-07T03:50:48.788Z,5.10
2023-01-07T03:53:16.177Z,5.20
2023-01-07T03:55:46.373Z,5.20
2023-01-07T03:58:14.506Z,5.20
2023-01-07T04:00:41.768Z,5.20
2023-01-07T04:03:15.449Z,5.30
2023-01-07T04:05:46.066Z,5.40
2023-01-07T04:08:14.287Z,5.50
2023-01-07T04:10:42.403Z,5.50
2023-01-07T04:13:10.127Z,5.60
2023-01-07T04:15:38.141Z,5.70
2023-01-07T04:18:05.803Z,5.80
2023-01-07T04:20:33.286Z,5.80
2023-01-07T04:23:00.714Z,5.90
2023-01-07T04:25:28.639Z,5.90
2023-01-07T04:27:56.435Z,5.80
2023-01-07T04:30:24.249Z,5.80
2023-01-07T04:32:52.125Z,5.80
2023-01-07T04:35:19.337Z,5.80
2023-01-07T04:37:46.794Z,5.80
2023-01-07T04:40:14.026Z,5.90
2023-01-07T04:42:41.694Z,5.90
2023-01-07T04:45:10.421Z,5.80
2023-01-07T04:47:38.251Z,5.90
2023-01-07T04:50:06.844Z,5.80
2023-01-07T04:52:36.528Z,5.70
2023-01-07T04:55:05.169Z,5.70
2023-01-07T04:57:32.731Z,5.70
2023-01-07T05:00:00.146Z,5.70
2023-01-07T05:02:27.669Z,5.60
2023-01-07T05:04:54.886Z,5.50
2023-01-07T05:07:22.737Z,5.50
2023-01-07T05:09:49.930Z,5.60
2023-01-07T05:12:18.166Z,5.60
2023-01-07T05:14:45.432Z,5.60
2023-01-07T05:17:12.919Z,5.50
2023-01-07T05:19:40.606Z,5.60
2023-01-07T05:22:10.935Z,5.50
2023-01-07T05:24:40.684Z,5.40
2023-01-07T05:27:08.395Z,5.40
2023-01-07T05:29:37.216Z,5.40
2023-01-07T05:32:04.978Z,5.50
2023-01-07T05:34:32.929Z,5.60
2023-01-07T05:37:00.318Z,5.60
2023-01-07T05:39:27.761Z,5.70
2023-01-07T05:41:55.154Z,5.70
2023-01-07T05:44:24.481Z,5.60
2023-01-07T05:46:52.149Z,5.60
2023-01-07T05:49:19.390Z,5.70
2023-01-07T05:51:46.855Z,5.70
2023-01-07T05:54:14.059Z,5.70
2023-01-07T05:56:41.553Z,5.80
2023-01-07T05:59:08.783Z,5.80
2023-01-07T06:01:36.300Z,5.90
2023-01-07T06:04:03.484Z,5.90
2023-01-07T06:06:31.064Z,6.00
2023-01-07T06:08:58.166Z,6.10
2023-01-07T06:11:25.553Z,6.10
2023-01-07T06:13:52.664Z,6.20
2023-01-07T06:16:20.252Z,6.20
2023-01-07T06:18:47.434Z,6.20
2023-01-07T06:21:16.244Z,6.20
2023-01-07T06:23:43.629Z,6.20
2023-01-07T06:26:11.092Z,6.20
2023-01-07T06:28:38.290Z,6.20
2023-01-07T06:31:09.339Z,6.30
2023-01-07T06:33:37.959Z,6.20
2023-01-07T06:36:05.759Z,6.20
2023-01-07T06:38:32.991Z,6.20
2023-01-07T06:41:01.819Z,6.20
2023-01-07T06:43:29.447Z,6.10
2023-01-07T06:45:57.214Z,6.10
2023-01-07T06:48:24.674Z,6.10
2023-01-07T06:50:52.211Z,6.10
2023-01-07T06:53:19.386Z,6.00
2023-01-07T06:55:51.246Z,6.00
2023-01-07T06:58:18.808Z,6.00
2023-01-07T07:00:46.283Z,6.10
2023-01-07T07:03:13.490Z,6.10
2023-01-07T07:05:41.154Z,6.20
2023-01-07T07:08:08.625Z,6.20
2023-01-07T07:10:36.579Z,6.30
2023-01-07T07:13:03.779Z,6.20
2023-01-07T07:15:31.323Z,6.20
2023-01-07T07:17:58.540Z,6.30
2023-01-07T07:20:26.037Z,6.30
2023-01-07T07:22:53.329Z,6.40
2023-01-07T07:25:20.906Z,6.50
2023-01-07T07:27:48.188Z,6.50
2023-01-07T07:30:16.173Z,6.60
2023-01-07T07:32:43.630Z,6.60
2023-01-07T07:35:12.082Z,6.70
2023-01-07T07:37:40.292Z,6.70
2023-01-07T07:40:09.226Z,6.80
2023-01-07T07:43:11.271Z,6.80
2023-01-07T07:45:26.032Z,6.80
2023-01-07T07:47:53.302Z,6.90
2023-01-07T07:50:21.015Z,7.00
2023-01-07T07:52:48.424Z,7.10
2023-01-07T07:55:20.772Z,7.20
2023-01-07T07:57:55.177Z,7.20
2023-01-07T08:00:23.310Z,7.30
2023-01-07T08:02:50.627Z,7.30
2023-01-07T08:05:18.355Z,7.20
2023-01-07T08:07:45.568Z,7.20
2023-01-07T08:10:13.123Z,7.10
2023-01-07T08:12:40.427Z,7.20
2023-01-07T08:15:08.874Z,7.20
2023-01-07T08:17:36.543Z,7.10
2023-01-07T08:20:05.639Z,7.10
2023-01-07T08:22:33.655Z,7.20
2023-01-07T08:25:01.547Z,7.10
2023-01-07T08:27:29.604Z,6.90
2023-01-07T08:29:57.342Z,7.00
2023-01-07T08:32:24.754Z,7.20
2023-01-07T08:34:52.326Z,7.20
2023-01-07T08:37:19.602Z,7.30
2023-01-07T08:39:47.407Z,7.40
2023-01-07T08:42:14.588Z,7.50
2023-01-07T08:44:42.193Z,7.60
2023-01-07T08:47:09.361Z,7.70
2023-01-07T08:49:36.970Z,7.70
2023-01-07T08:52:04.567Z,7.80
2023-01-07T08:54:32.267Z,7.80
2023-01-07T08:56:59.635Z,7.80
2023-01-07T08:59:27.115Z,7.80
2023-01-07T09:01:54.423Z,7.90
2023-01-07T09:04:22.012Z,8.10
2023-01-07T09:06:49.650Z,8.30
2023-01-07T09:09:17.751Z,8.40
2023-01-07T09:11:44.980Z,8.30
2023-01-07T09:14:12.380Z,8.40
2023-01-07T09:16:39.662Z,8.40
2023-01-07T09:19:07.289Z,8.50
2023-01-07T09:21:34.588Z,8.30
2023-01-07T09:24:02.138Z,8.20
2023-01-07T09:26:29.636Z,8.30
2023-01-07T09:28:57.299Z,8.40
2023-01-07T09:31:24.687Z,8.60
2023-01-07T09:33:52.200Z,8.70
2023-01-07T09:36:19.498Z,8.70
2023-01-07T09:38:47.068Z,8.70
2023-01-07T09:41:31.530Z,8.60
2023-01-07T09:44:29.110Z,8.60
2023-01-07T09:46:58.558Z,8.60
2023-01-07T09:49:30.036Z,8.60
2023-01-07T09:52:10.401Z,8.50
2023-01-07T09:54:39.642Z,8.40
2023-01-07T09:57:09.948Z,8.50
2023-01-07T09:59:37.384Z,8.30
2023-01-07T10:02:22.962Z,8.40
2023-01-07T10:05:01.781Z,8.50
2023-01-07T10:07:33.026Z,8.50
2023-01-07T10:10:34.341Z,8.50
2023-01-07T10:13:42.813Z,8.60
2023-01-07T10:16:38.899Z,8.60
2023-01-07T10:19:37.838Z,8.60
2023-01-07T10:22:32.280Z,8.60
2023-01-07T10:25:15.565Z,8.70
2023-01-07T10:27:46.334Z,8.70
2023-01-07T10:30:19.649Z,8.70
2023-01-07T10:32:50.162Z,8.70
2023-01-07T10:35:21.296Z,8.80
2023-01-07T10:37:48.873Z,8.90
2023-01-07T10:40:21.630Z,9.00
2023-01-07T10:42:58.557Z,9.20
2023-01-07T10:45:44.806Z,9.30
2023-01-07T10:48:27.423Z,9.50
2023-01-07T10:51:08.633Z,9.70
2023-01-07T10:53:44.160Z,9.90
2023-01-07T10:56:30.345Z,10.00
2023-01-07T10:58:58.301Z,10.10
2023-01-07T11:01:34.670Z,10.10
2023-01-07T11:04:03.145Z,9.90
2023-01-07T11:06:59.073Z,9.80
2023-01-07T11:09:33.749Z,9.70
2023-01-07T11:12:36.765Z,9.80
2023-01-07T11:15:14.012Z,9.80
2023-01-07T11:17:56.202Z,10.00
2023-01-07T11:20:46.536Z,10.10
2023-01-07T11:23:42.809Z,10.50
2023-01-07T11:26:16.536Z,10.80
2023-01-07T11:28:51.619Z,11.10
2023-01-07T11:31:19.943Z,11.10
2023-01-07T11:34:02.337Z,10.90
2023-01-07T11:36:42.172Z,10.80
2023-01-07T11:39:11.758Z,10.60
2023-01-07T11:41:52.789Z,10.60
2023-01-07T11:44:20.149Z,10.60
2023-01-07T11:46:47.912Z,10.50
2023-01-07T11:49:30.494Z,10.40
2023-01-07T11:51:59.193Z,10.40
2023-01-07T11:54:29.326Z,10.20
2023-01-07T11:57:19.503Z,10.00
2023-01-07T11:59:46.751Z,9.90
2023-01-07T12:02:26.575Z,9.90
2023-01-07T12:05:32.089Z,9.90
2023-01-07T12:07:59.885Z,9.80
2023-01-07T12:10:32.517Z,9.80
2023-01-07T12:13:02.960Z,9.80
2023-01-07T12:15:47.801Z,9.80
2023-01-07T12:18:36.525Z,9.80
2023-01-07T12:21:32.414Z,9.90
2023-01-07T12:24:08.764Z,10.10
2023-01-07T12:27:03.586Z,10.40
2023-01-07T12:29:44.268Z,10.30
2023-01-07T12:32:16.072Z,10.00
2023-01-07T12:34:58.856Z,10.10
2023-01-07T12:37:53.851Z,10.00
2023-01-07T12:40:31.334Z,9.80
2023-01-07T12:43:30.218Z,9.70
2023-01-07T12:46:04.305Z,9.40
2023-01-07T12:49:02.158Z,9.20
2023-01-07T12:52:05.660Z,9.10
2023-01-07T12:54:46.747Z,9.20
2023-01-07T12:57:22.011Z,9.40
2023-01-07T13:00:16.983Z,9.50
2023-01-07T13:03:03.218Z,9.50
2023-01-07T13:06:09.897Z,9.60
2023-01-07T13:08:46.861Z,9.60
2023-01-07T13:11:43.953Z,9.60
2023-01-07T13:14:25.953Z,9.70
2023-01-07T13:17:13.851Z,9.70
2023-01-07T13:19:41.592Z,9.70
2023-01-07T13:22:19.963Z,9.80
2023-01-07T13:24:56.001Z,9.80
2023-01-07T13:28:01.194Z,9.80
2023-01-07T13:30:57.065Z,9.70
2023-01-07T13:33:33.576Z,9.70
2023-01-07T13:36:22.213Z,9.70
2023-01-07T13:39:33.852Z,9.60
2023-01-07T13:42:07.961Z,9.60
2023-01-07T13:44:58.400Z,9.60
2023-01-07T13:47:33.783Z,9.60
2023-01-07T13:50:02.439Z,9.50
2023-01-07T13:52:34.205Z,9.50
2023-01-07T13:55:33.448Z,9.50
2023-01-07T13:58:04.031Z,9.40
2023-01-07T14:01:08.323Z,9.40
2023-01-07T14:03:40.492Z,9.30
2023-01-07T14:06:19.912Z,9.30
2023-01-07T14:08:58.556Z,9.30
2023-01-07T14:11:35.284Z,9.30
2023-01-07T14:14:26.661Z,9.20
2023-01-07T14:17:19.123Z,9.10
2023-01-07T14:20:03.818Z,9.10
2023-01-07T14:22:53.086Z,9.00
2023-01-07T14:25:48.772Z,9.00
2023-01-07T14:28:23.194Z,9.00
2023-01-07T14:30:53.146Z,9.00
2023-01-07T14:33:27.919Z,8.90
2023-01-07T14:36:01.614Z,8.90
2023-01-07T14:38:31.682Z,8.80
2023-01-07T14:41:13.605Z,8.80
2023-01-07T14:43:41.044Z,8.80
2023-01-07T14:46:30.009Z,8.80
2023-01-07T14:49:02.965Z,8.80
2023-01-07T14:51:33.309Z,8.80
2023-01-07T14:54:00.521Z,8.80
2023-01-07T14:56:51.752Z,8.70
2023-01-07T14:59:24.265Z,8.70
2023-01-07T15:02:05.416Z,8.70
2023-01-07T15:05:03.339Z,8.70
2023-01-07T15:07:36.144Z,8.70
2023-01-07T15:10:45.822Z,8.70
2023-01-07T15:13:38.258Z,8.70
2023-01-07T15:16:11.672Z,8.80
2023-01-07T15:18:50.989Z,8.70
2023-01-07T15:22:06.632Z,8.70
2023-01-07T15:24:58.303Z,8.70
2023-01-07T15:27:31.988Z,8.70
2023-01-07T15:30:14.407Z,8.70
2023-01-07T15:33:18.735Z,8.70
2023-01-07T15:35:46.659Z,8.60
2023-01-07T15:38:38.305Z,8.70
2023-01-07T15:41:06.190Z,8.60
2023-01-07T15:43:44.490Z,8.60
2023-01-07T15:46:13.973Z,8.60
2023-01-07T15:48:41.570Z,8.60
2023-01-07T15:51:17.095Z,8.60
2023-01-07T15:53:53.251Z,8.50
2023-01-07T15:56:22.338Z,8.60
2023-01-07T15:58:49.740Z,8.60
2023-01-07T16:01:27.555Z,8.60
2023-01-07T16:03:56.583Z,8.60
2023-01-07T16:06:34.120Z,8.60
2023-01-07T16:09:21.273Z,8.60
2023-01-07T16:11:49.059Z,8.60
2023-01-07T16:14:18.827Z,8.60
2023-01-07T16:16:46.836Z,8.60
2023-01-07T16:19:19.396Z,8.60
2023-01-07T16:21:54.454Z,8.60
2023-01-07T16:24:22.090Z,8.60
2023-01-07T16:26:59.822Z,8.60
2023-01-07T16:29:35.948Z,8.50
2023-01-07T16:32:06.991Z,8.50
2023-01-07T16:34:34.261Z,8.50
2023-01-07T16:37:04.746Z,8.50
2023-01-07T16:39:35.644Z,8.50
2023-01-07T16:42:32.699Z,8.50
2023-01-07T16:45:01.797Z,8.50
2023-01-07T16:47:33.799Z,8.50
2023-01-07T16:50:17.541Z,8.40
2023-01-07T16:52:55.492Z,8.40
2023-01-07T16:55:47.188Z,8.40
2023-01-07T16:58:41.608Z,8.30
2023-01-07T17:01:10.183Z,8.30
2023-01-07T17:03:48.099Z,8.40
2023-01-07T17:06:16.159Z,8.40
2023-01-07T17:08:50.222Z,8.40
2023-01-07T17:11:36.879Z,8.40
2023-01-07T17:14:04.811Z,8.30
2023-01-07T17:16:33.720Z,8.30
2023-01-07T17:19:26.774Z,8.30
2023-01-07T17:21:54.535Z,8.30
2023-01-07T17:24:27.680Z,8.20
2023-01-07T17:27:00.726Z,8.20
2023-01-07T17:29:35.626Z,8.30
2023-01-07T17:32:06.213Z,8.30
2023-01-07T17:34:34.063Z,8.30
2023-01-07T17:37:01.337Z,8.30
2023-01-07T17:39:28.839Z,8.30
2023-01-07T17:42:14.596Z,8.20
2023-01-07T17:44:42.049Z,8.20
2023-01-07T17:47:11.293Z,8.20
2023-01-07T17:49:38.716Z,8.10
2023-01-07T17:52:06.004Z,8.10
2023-01-07T17:54:33.394Z,8.10
2023-01-07T17:57:00.517Z,8.10
2023-01-07T17:59:28.973Z,7.90
2023-01-07T18:01:59.065Z,7.80
2023-01-07T18:04:26.701Z,7.60
2023-01-07T18:06:53.875Z,7.50
2023-01-07T18:09:21.349Z,7.40
2023-01-07T18:12:07.112Z,7.30
2023-01-07T18:14:34.803Z,7.30
2023-01-07T18:17:02.162Z,7.20
2023-01-07T18:19:29.668Z,7.20
2023-01-07T18:21:56.807Z,7.20
2023-01-07T18:24:24.289Z,7.20
2023-01-07T18:26:51.507Z,7.20
2023-01-07T18:29:19.111Z,7.30
2023-01-07T18:31:46.477Z,7.40
2023-01-07T18:34:15.267Z,7.40
2023-01-07T18:36:42.836Z,7.40
2023-01-07T18:39:17.444Z,7.40
2023-01-07T18:41:48.733Z,7.40
2023-01-07T18:44:18.356Z,7.30
2023-01-07T18:46:45.511Z,7.30
2023-01-07T18:49:13.548Z,7.30
2023-01-07T18:51:40.816Z,7.40
2023-01-07T18:54:08.349Z,7.40
2023-01-07T18:56:35.452Z,7.50
2023-01-07T18:59:03.106Z,7.50
2023-01-07T19:01:30.383Z,7.60
2023-01-07T19:03:58.014Z,7.60
2023-01-07T19:06:25.261Z,7.60
2023-01-07T19:08:52.793Z,7.60
2023-01-07T19:11:20.014Z,7.60
2023-01-07T19:13:47.497Z,7.50
2023-01-07T19:16:14.886Z,7.50
2023-01-07T19:18:42.442Z,7.40
2023-01-07T19:21:11.920Z,7.40
2023-01-07T19:23:39.640Z,7.30
2023-01-07T19:26:08.958Z,7.30
2023-01-07T19:28:36.569Z,7.20
2023-01-07T19:31:07.995Z,7.20
2023-01-07T19:33:36.243Z,7.10
2023-01-07T19:36:07.767Z,7.10
2023-01-07T19:38:42.776Z,7.10
2023-01-07T19:41:17.329Z,7.10
2023-01-07T19:43:49.332Z,7.10
2023-01-07T19:46:18.485Z,7.10
2023-01-07T19:48:49.045Z,7.20
2023-01-07T19:51:16.197Z,7.20
2023-01-07T19:53:43.667Z,7.20
2023-01-07T19:56:12.630Z,7.10
2023-01-07T19:58:41.938Z,7.10
2023-01-07T20:01:12.917Z,7.10
2023-01-07T20:03:40.647Z,7.00
2023-01-07T20:06:13.382Z,7.00
2023-01-07T20:08:41.435Z,6.90
2023-01-07T20:11:09.785Z,6.80
2023-01-07T20:13:38.215Z,6.80
2023-01-07T20:16:07.655Z,6.70
2023-01-07T20:18:46.703Z,6.60
2023-01-07T20:21:15.944Z,6.50
2023-01-07T20:23:44.218Z,6.40
2023-01-07T20:26:16.938Z,6.20
2023-01-07T20:28:44.719Z,6.20
2023-01-07T20:31:14.602Z,6.10
2023-01-07T20:33:43.380Z,6.00
2023-01-07T20:36:16.118Z,5.90
2023-01-07T20:38:44.675Z,5.80
2023-01-07T20:41:20.646Z,5.70
2023-01-07T20:43:56.931Z,5.60
2023-01-07T20:46:26.598Z,5.60
2023-01-07T20:48:55.177Z,5.50
2023-01-07T20:51:22.638Z,5.50
2023-01-07T20:53:51.286Z,5.50
2023-01-07T20:56:20.712Z,5.50
2023-01-07T20:58:49.751Z,5.50
2023-01-07T21:01:19.799Z,5.50
2023-01-07T21:07:29.054Z,5.40
2023-01-07T21:09:56.713Z,5.20
2023-01-07T21:12:23.985Z,5.30
2023-01-07T21:14:51.426Z,5.30
2023-01-07T21:17:18.564Z,5.20
2023-01-07T21:19:46.269Z,5.10
2023-01-07T21:22:13.646Z,5.10
2023-01-07T21:24:41.099Z,5.00
2023-01-07T21:27:08.256Z,5.00
2023-01-07T21:29:35.751Z,5.00
2023-01-07T21:32:04.287Z,5.00
2023-01-07T21:34:31.836Z,4.90
2023-01-07T21:36:59.128Z,4.90
2023-01-07T21:39:26.885Z,4.90
2023-01-07T21:41:54.143Z,4.80
2023-01-07T21:44:21.483Z,4.80
2023-01-07T21:46:48.719Z,4.70
2023-01-07T21:49:19.019Z,4.70
2023-01-07T21:51:46.253Z,4.60
2023-01-07T21:54:13.825Z,4.60
2023-01-07T21:56:41.378Z,4.60
2023-01-07T21:59:10.029Z,4.50
2023-01-07T22:01:37.751Z,4.50
2023-01-07T22:04:05.423Z,4.60
2023-01-07T22:06:35.567Z,4.50
2023-01-07T22:09:08.251Z,4.50
2023-01-07T22:11:38.521Z,4.40
2023-01-07T22:14:05.991Z,4.40
2023-01-07T22:16:33.403Z,4.40
2023-01-07T22:19:01.430Z,4.40
2023-01-07T22:21:28.752Z,4.30
2023-01-07T22:23:56.244Z,4.30
2023-01-07T22:26:23.884Z,4.30
2023-01-07T22:29:03.298Z,4.20
2023-01-07T22:31:38.040Z,4.30
2023-01-07T22:34:07.325Z,4.30
2023-01-07T22:36:34.463Z,4.30
2023-01-07T22:39:09.801Z,4.20
2023-01-07T22:41:37.731Z,4.20
2023-01-07T22:44:19.548Z,4.30
2023-01-07T22:46:50.147Z,4.30
2023-01-07T22:49:19.151Z,4.30
2023-01-07T22:51:48.939Z,4.20
2023-01-07T22:54:16.988Z,4.20
2023-01-07T22:56:44.877Z,4.20
2023-01-07T22:59:12.580Z,4.20
2023-01-07T23:01:40.139Z,4.10
2023-01-07T23:04:08.093Z,4.10
2023-01-07T23:06:35.433Z,4.10
2023-01-07T23:09:03.135Z,4.10
2023-01-07T23:11:51.063Z,4.10
2023-01-07T23:14:20.618Z,4.10
2023-01-07T23:16:48.515Z,4.00
2023-01-07T23:19:16.886Z,4.00
2023-01-07T23:21:46.505Z,4.00
2023-01-07T23:24:14.741Z,4.00
2023-01-07T23:26:42.888Z,4.00
2023-01-07T23:29:10.408Z,4.00
2023-01-07T23:31:37.932Z,4.00
2023-01-07T23:34:05.510Z,4.00
2023-01-07T23:36:33.068Z,3.90
2023-01-07T23:39:00.515Z,3.90
2023-01-07T23:41:27.708Z,3.90
2023-01-07T23:43:55.135Z,3.90
2023-01-07T23:46:22.337Z,3.80
2023-01-07T23:48:49.828Z,3.80
2023-01-07T23:51:19.275Z,3.80
2023-01-07T23:53:47.262Z,3.80
2023-01-07T23:56:17.491Z,3.80
2023-01-07T23:58:44.945Z,3.80
